Terminal Aerodrome Forecast
Issued by NWS

Home | Current Version | Previous Version | Text Only | Print | Product List | Glossary On
Versions: 1 2 3 4 5 6 7 8 9 10 11 12 13 14 15 16 17 18 19 20 21 22 23 24 25
000
FTUS45 KREV 040524
TAFCXP
TAF
KCXP 040524Z 0406/0506 26011KT P6SM SCT140 SCT200
     FM040800 VRB03KT P6SM SCT140 SCT200
     FM041700 20010G20KT P6SM SCT140 SCT200
     FM042200 26019G30KT P6SM SCT140 SCT200
     FM050300 29012G20KT P6SM SCT120 BKN200=

USA.gov is the U.S. government's official web portal to all federal, state and local government web resources and services.